createdAt,value
2023-06-10T00:00:15.850Z,97130.28
2023-06-10T00:02:45.285Z,97128.84
2023-06-10T00:05:13.755Z,97124.06
2023-06-10T00:07:43.348Z,97126.81
2023-06-10T00:10:12.403Z,97121.03
2023-06-10T00:12:41.399Z,97124.25
2023-06-10T00:15:11.017Z,97097.13
2023-06-10T00:17:41.091Z,97126.44
2023-06-10T00:20:13.577Z,97124.66
2023-06-10T00:22:47.004Z,97122.56
2023-06-10T00:25:15.437Z,97123.41
2023-06-10T00:27:43.617Z,97125.09
2023-06-10T00:30:13.033Z,97126.22
2023-06-10T00:32:41.227Z,97118.50
2023-06-10T00:35:10.166Z,97117.44
2023-06-10T00:37:39.053Z,97121.22
2023-06-10T00:40:10.489Z,97097.69
2023-06-10T00:42:38.758Z,97111.31
2023-06-10T00:45:08.585Z,97114.72
2023-06-10T00:47:37.709Z,97114.13
2023-06-10T00:50:07.632Z,97113.28
2023-06-10T00:52:36.931Z,97054.59
2023-06-10T00:55:05.745Z,97119.44
2023-06-10T00:57:35.544Z,97095.25
2023-06-10T01:00:08.576Z,97092.22
2023-06-10T01:02:37.406Z,97108.28
2023-06-10T01:05:06.980Z,97099.00
2023-06-10T01:07:41.116Z,97098.91
2023-06-10T01:10:14.951Z,97103.22
2023-06-10T01:12:53.246Z,97109.44
2023-06-10T01:15:21.673Z,97107.75
2023-06-10T01:17:59.190Z,97066.81
2023-06-10T01:20:28.622Z,97105.59
2023-06-10T01:22:59.170Z,97104.38
2023-06-10T01:25:30.099Z,97104.06
2023-06-10T01:28:12.653Z,97112.00
2023-06-10T01:30:48.852Z,97106.72
2023-06-10T01:33:20.128Z,97108.25
2023-06-10T01:35:50.485Z,97109.03
2023-06-10T01:38:22.772Z,97112.47
2023-06-10T01:40:51.789Z,97109.13
2023-06-10T01:43:20.064Z,97124.97
2023-06-10T01:45:48.461Z,97116.06
2023-06-10T01:48:16.627Z,97063.00
2023-06-10T01:50:45.460Z,97118.44
2023-06-10T01:53:13.703Z,97115.22
2023-06-10T01:55:43.327Z,97123.78
2023-06-10T01:58:11.536Z,97119.34
2023-06-10T02:00:39.729Z,97125.41
2023-06-10T02:03:08.056Z,97115.38
2023-06-10T02:05:36.286Z,97116.00
2023-06-10T02:08:04.936Z,97064.63
2023-06-10T02:10:33.215Z,97118.00
2023-06-10T02:13:02.859Z,97122.44
2023-06-10T02:15:31.211Z,97122.13
2023-06-10T02:17:59.426Z,97126.50
2023-06-10T02:20:27.615Z,97108.72
2023-06-10T02:22:55.944Z,97121.47
2023-06-10T02:25:24.074Z,97083.00
2023-06-10T02:27:52.242Z,97122.06
2023-06-10T02:30:21.861Z,97121.28
2023-06-10T02:32:50.125Z,97122.31
2023-06-10T02:35:18.381Z,97133.16
2023-06-10T02:37:46.807Z,97095.78
2023-06-10T02:40:15.025Z,97136.41
2023-06-10T02:42:43.198Z,97129.22
2023-06-10T02:45:11.979Z,97120.72
2023-06-10T02:47:42.037Z,97137.09
2023-06-10T02:50:11.106Z,97142.28
2023-06-10T02:52:39.590Z,97122.00
2023-06-10T02:55:08.560Z,97151.50
2023-06-10T02:57:37.000Z,97150.56
2023-06-10T03:00:10.604Z,97138.53
2023-06-10T03:02:40.162Z,97159.16
2023-06-10T03:05:11.937Z,97164.19
2023-06-10T03:07:40.427Z,97160.44
2023-06-10T03:10:09.720Z,97165.63
2023-06-10T03:12:37.871Z,97167.22
2023-06-10T03:15:07.476Z,97165.34
2023-06-10T03:17:35.993Z,97174.63
2023-06-10T03:20:04.384Z,97169.81
2023-06-10T03:22:34.051Z,97134.25
2023-06-10T03:25:02.256Z,97164.66
2023-06-10T03:27:31.542Z,97171.63
2023-06-10T03:29:59.727Z,97172.38
2023-06-10T03:32:28.121Z,97170.78
2023-06-10T03:34:58.523Z,97177.00
2023-06-10T03:37:26.877Z,97189.13
2023-06-10T03:39:56.557Z,97132.63
2023-06-10T03:42:24.792Z,97183.28
2023-06-10T03:44:52.975Z,97192.81
2023-06-10T03:47:21.238Z,97189.63
2023-06-10T03:49:49.547Z,97184.19
2023-06-10T03:52:17.830Z,97187.03
2023-06-10T03:54:46.106Z,97192.06
2023-06-10T03:57:15.795Z,97181.03
2023-06-10T03:59:43.975Z,97187.75
2023-06-10T04:02:12.543Z,97190.88
2023-06-10T04:04:40.996Z,97191.47
2023-06-10T04:07:09.325Z,97191.03
2023-06-10T04:09:37.862Z,97142.78
2023-06-10T04:12:09.752Z,97195.88
2023-06-10T04:14:39.402Z,97200.25
2023-06-10T04:17:09.012Z,97199.22
2023-06-10T04:19:37.232Z,97198.09
2023-06-10T04:22:06.394Z,97186.72
2023-06-10T04:24:34.628Z,97202.81
2023-06-10T04:27:02.829Z,97202.66
2023-06-10T04:29:31.991Z,97197.63
2023-06-10T04:32:03.014Z,97200.84
2023-06-10T04:34:31.317Z,97190.84
2023-06-10T04:36:59.634Z,97194.06
2023-06-10T04:39:28.433Z,97191.47
2023-06-10T04:41:56.582Z,97199.84
2023-06-10T04:44:24.764Z,97197.44
2023-06-10T04:46:53.020Z,97198.75
2023-06-10T04:49:22.681Z,97180.31
2023-06-10T04:51:51.128Z,97189.88
2023-06-10T04:54:19.474Z,97192.13
2023-06-10T04:56:47.943Z,97176.34
2023-06-10T04:59:16.752Z,97206.34
2023-06-10T05:01:45.003Z,97204.25
2023-06-10T05:04:13.216Z,97209.44
2023-06-10T05:06:43.083Z,97189.38
2023-06-10T05:09:12.359Z,97187.97
2023-06-10T05:11:40.565Z,97196.13
2023-06-10T05:14:08.790Z,97206.97
2023-06-10T05:16:37.056Z,97213.16
2023-06-10T05:19:08.114Z,97206.59
2023-06-10T05:21:36.876Z,97201.22
2023-06-10T05:24:07.572Z,97194.56
2023-06-10T05:26:38.552Z,97207.88
2023-06-10T05:29:07.187Z,97183.66
2023-06-10T05:31:35.458Z,97208.94
2023-06-10T05:34:03.988Z,97208.44
2023-06-10T05:36:32.241Z,97212.28
2023-06-10T05:39:00.548Z,97209.16
2023-06-10T05:41:30.171Z,97212.38
2023-06-10T05:43:58.410Z,97216.72
2023-06-10T05:46:26.647Z,97215.38
2023-06-10T05:48:54.925Z,97216.47
2023-06-10T05:51:23.093Z,97208.00
2023-06-10T05:53:51.377Z,97218.28
2023-06-10T05:56:19.543Z,97047.50
2023-06-10T05:58:49.149Z,97219.81
2023-06-10T06:01:17.527Z,97220.00
2023-06-10T06:03:45.920Z,97227.44
2023-06-10T06:06:14.368Z,97200.47
2023-06-10T06:08:42.564Z,97216.84
2023-06-10T06:11:10.842Z,97204.41
2023-06-10T06:13:39.147Z,97214.72
2023-06-10T06:16:08.737Z,97228.00
2023-06-10T06:18:36.952Z,97224.81
2023-06-10T06:21:05.323Z,97211.09
2023-06-10T06:23:33.666Z,97197.50
2023-06-10T06:26:01.928Z,97225.03
2023-06-10T06:28:30.573Z,97218.97
2023-06-10T06:30:59.006Z,97199.72
2023-06-10T06:33:28.779Z,97227.81
2023-06-10T06:35:56.986Z,97230.03
2023-06-10T06:38:25.238Z,97230.75
2023-06-10T06:40:53.381Z,97233.22
2023-06-10T06:43:21.667Z,97245.19
2023-06-10T06:45:49.889Z,97233.19
2023-06-10T06:48:18.183Z,97232.22
2023-06-10T06:50:47.906Z,97236.16
2023-06-10T06:53:16.161Z,97222.41
2023-06-10T06:55:44.358Z,97221.19
2023-06-10T06:58:12.566Z,97223.66
2023-06-10T07:00:40.828Z,97222.25
2023-06-10T07:03:09.170Z,97223.09
2023-06-10T07:05:37.498Z,97227.34
2023-06-10T07:08:07.666Z,97221.81
2023-06-10T07:10:36.002Z,97229.56
2023-06-10T07:13:05.145Z,97223.03
2023-06-10T07:15:33.947Z,97220.63
2023-06-10T07:18:02.183Z,97231.16
2023-06-10T07:20:30.378Z,97223.56
2023-06-10T07:22:58.682Z,97226.84
2023-06-10T07:25:28.452Z,97220.44
2023-06-10T07:27:56.627Z,97194.03
2023-06-10T07:30:25.013Z,97214.84
2023-06-10T07:32:53.714Z,97215.03
2023-06-10T07:35:22.152Z,97170.44
2023-06-10T07:37:50.378Z,97221.06
2023-06-10T07:40:18.819Z,97218.59
2023-06-10T07:42:48.414Z,97220.06
2023-06-10T07:45:16.807Z,97229.38
2023-06-10T07:47:45.365Z,97231.81
2023-06-10T07:50:13.620Z,97229.66
2023-06-10T07:52:41.845Z,97231.81
2023-06-10T07:55:10.434Z,97235.06
2023-06-10T07:57:39.794Z,97237.88
2023-06-10T08:00:10.877Z,97236.13
2023-06-10T08:02:39.242Z,97223.41
2023-06-10T08:05:08.215Z,97233.38
2023-06-10T08:07:36.772Z,97231.16
2023-06-10T08:10:05.653Z,97172.38
2023-06-10T08:12:34.824Z,97203.50
2023-06-10T08:15:03.816Z,97221.59
2023-06-10T08:17:33.565Z,97174.69
2023-06-10T08:20:01.785Z,97164.41
2023-06-10T08:22:30.660Z,97223.50
2023-06-10T08:24:58.863Z,97229.28
2023-06-10T08:27:27.435Z,97229.28
2023-06-10T08:29:55.589Z,97216.44
2023-06-10T08:32:23.970Z,97224.81
2023-06-10T08:34:53.847Z,97223.50
2023-06-10T08:37:21.997Z,97227.47
2023-06-10T08:39:50.224Z,97215.22
2023-06-10T08:42:25.211Z,97193.78
2023-06-10T08:44:57.496Z,97216.09
2023-06-10T08:47:28.554Z,97230.25
2023-06-10T08:50:02.409Z,97222.88
2023-06-10T08:52:37.311Z,97217.06
2023-06-10T08:55:12.533Z,97224.09
2023-06-10T08:57:41.466Z,97223.84
2023-06-10T09:00:11.225Z,97218.63
2023-06-10T09:02:40.557Z,97206.63
2023-06-10T09:05:11.496Z,97224.94
2023-06-10T09:07:40.891Z,97216.56
2023-06-10T09:10:10.265Z,97226.59
2023-06-10T09:12:39.308Z,97211.41
2023-06-10T09:15:09.264Z,97219.91
2023-06-10T09:17:39.242Z,97216.84
2023-06-10T09:20:11.273Z,97206.03
2023-06-10T09:22:40.080Z,97219.53
2023-06-10T09:25:10.318Z,97212.50
2023-06-10T09:27:50.111Z,97223.16
2023-06-10T09:30:29.032Z,97217.72
2023-06-10T09:32:58.633Z,97216.38
2023-06-10T09:35:31.011Z,97213.09
2023-06-10T09:38:00.600Z,97213.22
2023-06-10T09:40:29.351Z,97190.16
2023-06-10T09:42:58.901Z,97209.38
2023-06-10T09:45:32.503Z,97203.66
2023-06-10T09:48:00.835Z,97211.97
2023-06-10T09:50:35.170Z,97210.84
2023-06-10T09:53:04.671Z,97217.47
2023-06-10T09:55:35.755Z,97199.66
2023-06-10T09:58:03.973Z,97205.84
2023-06-10T10:00:34.593Z,97193.88
2023-06-10T10:03:03.244Z,97200.47
2023-06-10T10:05:32.979Z,97199.81
2023-06-10T10:08:01.177Z,97207.06
2023-06-10T10:10:29.468Z,97206.25
2023-06-10T10:12:58.497Z,97199.22
2023-06-10T10:15:31.334Z,97189.84
2023-06-10T10:18:06.524Z,97199.47
2023-06-10T10:20:40.241Z,97192.66
2023-06-10T10:23:11.604Z,97191.41
2023-06-10T10:25:43.553Z,97189.16
2023-06-10T10:28:14.295Z,97179.06
2023-06-10T10:30:44.480Z,97183.66
2023-06-10T10:33:19.243Z,97181.28
2023-06-10T10:35:49.497Z,97137.03
2023-06-10T10:38:18.123Z,97179.06
2023-06-10T10:40:48.744Z,97176.69
2023-06-10T10:43:18.725Z,97181.03
2023-06-10T10:45:59.927Z,97174.16
2023-06-10T10:48:30.943Z,97177.63
2023-06-10T10:51:00.917Z,97171.47
2023-06-10T10:53:29.244Z,97172.38
2023-06-10T10:56:02.124Z,97169.31
2023-06-10T10:58:30.281Z,97158.94
2023-06-10T11:00:58.728Z,97155.59
2023-06-10T11:03:31.222Z,97142.69
2023-06-10T11:06:01.360Z,97006.25
2023-06-10T11:08:49.374Z,97157.91
2023-06-10T11:11:23.128Z,97149.31
2023-06-10T11:14:02.266Z,97147.88
2023-06-10T11:16:31.513Z,97153.06
2023-06-10T11:18:59.733Z,97142.19
2023-06-10T11:21:29.588Z,97143.47
2023-06-10T11:24:00.581Z,97144.03
2023-06-10T11:26:37.772Z,97135.72
2023-06-10T11:29:12.211Z,97131.38
2023-06-10T11:31:46.528Z,97131.38
2023-06-10T11:34:15.128Z,97130.25
2023-06-10T11:36:46.950Z,97120.63
2023-06-10T11:39:15.483Z,97116.38
2023-06-10T11:41:43.856Z,97119.94
2023-06-10T11:44:14.229Z,97104.47
2023-06-10T11:46:44.931Z,97109.91
2023-06-10T11:49:14.164Z,97107.34
2023-06-10T11:51:50.518Z,97117.22
2023-06-10T11:54:19.646Z,97114.19
2023-06-10T11:56:48.779Z,97101.91
2023-06-10T11:59:17.500Z,97100.91
2023-06-10T12:01:47.960Z,97089.91
2023-06-10T12:04:19.499Z,97101.47
2023-06-10T12:06:50.804Z,97099.34
2023-06-10T12:09:27.480Z,97095.56
2023-06-10T12:12:00.611Z,97090.25
2023-06-10T12:14:59.077Z,97084.66
2023-06-10T12:17:39.496Z,97070.31
2023-06-10T12:20:09.769Z,97077.09
2023-06-10T12:22:44.203Z,97073.94
2023-06-10T12:25:14.015Z,97070.16
2023-06-10T12:27:52.879Z,97064.53
2023-06-10T12:30:22.650Z,97070.50
2023-06-10T12:32:51.393Z,97062.28
2023-06-10T12:35:21.087Z,97001.97
2023-06-10T12:38:00.945Z,97024.38
2023-06-10T12:40:30.956Z,97065.63
2023-06-10T12:42:59.360Z,97064.53
2023-06-10T12:45:31.806Z,97062.66
2023-06-10T12:48:11.323Z,97052.25
2023-06-10T12:50:40.408Z,97058.09
2023-06-10T12:53:10.824Z,97050.38
2023-06-10T12:55:39.343Z,97053.53
2023-06-10T12:58:07.656Z,97050.25
2023-06-10T13:00:36.438Z,97051.16
2023-06-10T13:03:07.110Z,97053.59
2023-06-10T13:05:36.804Z,97054.22
2023-06-10T13:08:05.122Z,97054.44
2023-06-10T13:10:34.919Z,97058.75
2023-06-10T13:13:03.629Z,97056.50
2023-06-10T13:15:31.876Z,97055.44
2023-06-10T13:18:00.233Z,97052.06
2023-06-10T13:20:28.445Z,97052.75
2023-06-10T13:22:56.685Z,96999.75
2023-06-10T13:25:25.340Z,97025.88
2023-06-10T13:27:55.691Z,97060.75
2023-06-10T13:30:23.966Z,97060.47
2023-06-10T13:32:52.239Z,97070.38
2023-06-10T13:35:20.543Z,97071.47
2023-06-10T13:37:48.962Z,97073.22
2023-06-10T13:40:17.291Z,97062.09
2023-06-10T13:42:46.220Z,97058.53
2023-06-10T13:45:15.998Z,97051.38
2023-06-10T13:47:44.329Z,97055.53
2023-06-10T13:50:12.676Z,97059.50
2023-06-10T13:52:40.931Z,97051.53
2023-06-10T13:55:10.544Z,97064.13
2023-06-10T13:57:39.090Z,97069.34
2023-06-10T14:00:08.582Z,97077.44
2023-06-10T14:02:38.741Z,97073.13
2023-06-10T14:05:09.773Z,97082.63
2023-06-10T14:07:39.482Z,97081.78
2023-06-10T14:10:09.941Z,97088.25
2023-06-10T14:12:38.199Z,97079.34
2023-06-10T14:15:07.857Z,97095.41
2023-06-10T14:17:37.991Z,97092.72
2023-06-10T14:20:07.250Z,97083.22
2023-06-10T14:22:35.469Z,97087.03
2023-06-10T14:25:04.303Z,97093.53
2023-06-10T14:27:32.474Z,97086.59
2023-06-10T14:30:00.771Z,97091.91
2023-06-10T14:32:29.154Z,97091.72
2023-06-10T14:34:59.055Z,97093.63
2023-06-10T14:37:27.476Z,97084.31
2023-06-10T14:39:55.731Z,97084.41
2023-06-10T14:42:23.960Z,97084.47
2023-06-10T14:44:52.222Z,97070.44
2023-06-10T14:47:20.490Z,97085.25
2023-06-10T14:49:48.775Z,97094.75
2023-06-10T14:52:18.604Z,97098.41
2023-06-10T14:54:46.941Z,97094.84
2023-06-10T14:57:15.189Z,97096.22
2023-06-10T14:59:43.414Z,97095.34
2023-06-10T15:02:11.742Z,97040.66
2023-06-10T15:04:40.035Z,97090.88
2023-06-10T15:07:08.388Z,97106.88
2023-06-10T15:09:38.044Z,97105.28
2023-06-10T15:12:07.011Z,97083.97
2023-06-10T15:14:35.308Z,97100.13
2023-06-10T15:17:03.689Z,97107.81
2023-06-10T15:19:32.165Z,97021.00
2023-06-10T15:22:00.397Z,97107.44
2023-06-10T15:24:28.517Z,97111.81
2023-06-10T15:26:58.140Z,97109.13
2023-06-10T15:29:26.405Z,97106.47
2023-06-10T15:31:54.752Z,97101.47
2023-06-10T15:34:23.215Z,97085.84
2023-06-10T15:36:51.443Z,97089.28
2023-06-10T15:39:19.972Z,97093.53
2023-06-10T15:41:48.383Z,97083.84
2023-06-10T15:44:18.061Z,97078.09
2023-06-10T15:46:46.678Z,96946.50
2023-06-10T15:49:14.957Z,97100.63
2023-06-10T15:51:48.168Z,97101.91
2023-06-10T15:54:18.242Z,97098.25
2023-06-10T15:56:46.534Z,97099.84
2023-06-10T15:59:14.913Z,97104.13
2023-06-10T16:01:44.698Z,97101.88
2023-06-10T16:04:12.996Z,97104.06
2023-06-10T16:06:41.284Z,97100.44
2023-06-10T16:09:09.910Z,97096.69
2023-06-10T16:11:38.175Z,97099.38
2023-06-10T16:14:06.622Z,97104.00
2023-06-10T16:16:34.914Z,97097.47
2023-06-10T16:19:04.644Z,97096.13
2023-06-10T16:21:32.963Z,97087.78
2023-06-10T16:24:01.695Z,97094.75
2023-06-10T16:26:30.119Z,97086.03
2023-06-10T16:28:58.415Z,97084.97
2023-06-10T16:31:26.826Z,97087.38
2023-06-10T16:33:55.138Z,97096.34
2023-06-10T16:36:24.801Z,97102.31
2023-06-10T16:38:53.057Z,97101.56
2023-06-10T16:41:21.530Z,97108.56
2023-06-10T16:43:49.715Z,97102.25
2023-06-10T16:46:18.065Z,97099.38
2023-06-10T16:48:46.329Z,97096.59
2023-06-10T16:51:14.509Z,97094.41
2023-06-10T16:53:44.174Z,97088.72
2023-06-10T16:56:12.442Z,97093.56
2023-06-10T16:58:40.709Z,97093.59
2023-06-10T17:01:10.593Z,97096.72
2023-06-10T17:03:39.406Z,97103.72
2023-06-10T17:06:07.984Z,97106.13
2023-06-10T17:08:36.228Z,97070.41
2023-06-10T17:11:05.962Z,97101.06
2023-06-10T17:13:34.378Z,97102.75
2023-06-10T17:16:03.217Z,97102.41
2023-06-10T17:18:31.568Z,97102.16
2023-06-10T17:20:59.910Z,97107.47
2023-06-10T17:23:28.126Z,97107.22
2023-06-10T17:25:56.751Z,97112.81
2023-06-10T17:28:26.581Z,97103.59
2023-06-10T17:30:55.192Z,97089.53
2023-06-10T17:33:23.564Z,97102.88
2023-06-10T17:35:52.630Z,97110.97
2023-06-10T17:38:22.969Z,97108.53
2023-06-10T17:40:51.889Z,97102.72
2023-06-10T17:43:21.717Z,97098.59
2023-06-10T17:45:52.785Z,97114.22
2023-06-10T17:48:21.403Z,97099.34
2023-06-10T17:50:49.598Z,97108.38
2023-06-10T17:53:17.982Z,97117.34
2023-06-10T17:55:46.211Z,97122.34
2023-06-10T17:58:14.541Z,97119.91
2023-06-10T18:00:42.695Z,97133.47
2023-06-10T18:03:12.522Z,97132.34
2023-06-10T18:05:40.813Z,97124.84
2023-06-10T18:08:08.998Z,97124.28
2023-06-10T18:10:37.434Z,97139.91
2023-06-10T18:13:05.663Z,97137.44
2023-06-10T18:15:36.782Z,97145.75
2023-06-10T18:18:06.970Z,97147.16
2023-06-10T18:20:36.772Z,97145.22
2023-06-10T18:23:05.017Z,97145.88
2023-06-10T18:25:33.453Z,97143.84
2023-06-10T18:28:01.719Z,97160.34
2023-06-10T18:30:29.959Z,97157.28
2023-06-10T18:33:00.024Z,97154.75
2023-06-10T18:35:28.291Z,97159.31
2023-06-10T18:37:58.155Z,97167.50
2023-06-10T18:40:26.452Z,97174.19
2023-06-10T18:42:54.700Z,97180.38
2023-06-10T18:45:24.542Z,97184.59
2023-06-10T18:47:57.917Z,97183.47
2023-06-10T18:50:27.528Z,97178.66
2023-06-10T18:52:57.593Z,97177.91
2023-06-10T18:55:26.513Z,97183.91
2023-06-10T18:57:55.319Z,97184.75
2023-06-10T19:00:23.562Z,97192.41
2023-06-10T19:02:51.831Z,97201.72
2023-06-10T19:05:20.758Z,97196.75
2023-06-10T19:07:49.072Z,97195.56
2023-06-10T19:10:19.010Z,97205.03
2023-06-10T19:12:47.217Z,97209.94
2023-06-10T19:15:16.182Z,97203.13
2023-06-10T19:17:44.519Z,97225.13
2023-06-10T19:20:14.797Z,97221.81
2023-06-10T19:22:43.084Z,97238.75
2023-06-10T19:25:11.993Z,97230.66
2023-06-10T19:27:42.177Z,97231.63
2023-06-10T19:30:11.418Z,97233.19
2023-06-10T19:32:39.791Z,97221.72
2023-06-10T19:35:09.054Z,97248.22
2023-06-10T19:37:37.532Z,97250.63
2023-06-10T19:40:06.722Z,97258.28
2023-06-10T19:42:38.961Z,97254.44
2023-06-10T19:45:09.952Z,97250.91
2023-06-10T19:47:39.071Z,97258.28
2023-06-10T19:50:08.284Z,97259.25
2023-06-10T19:52:36.715Z,97272.09
2023-06-10T19:55:05.851Z,97254.34
2023-06-10T19:57:34.360Z,97278.13
2023-06-10T20:00:03.002Z,97263.47
2023-06-10T20:02:33.600Z,97268.88
2023-06-10T20:05:02.230Z,97264.84
2023-06-10T20:07:32.090Z,97184.69
2023-06-10T20:10:00.461Z,97267.03
2023-06-10T20:12:28.720Z,97254.28
2023-06-10T20:15:00.321Z,97240.59
2023-06-10T20:17:29.232Z,97272.59
2023-06-10T20:19:59.032Z,97272.31
2023-06-10T20:22:33.935Z,97269.16
2023-06-10T20:25:02.597Z,97265.59
2023-06-10T20:27:31.048Z,97265.88
2023-06-10T20:29:59.291Z,97265.72
2023-06-10T20:32:27.727Z,97263.66
2023-06-10T20:34:56.070Z,97263.47
2023-06-10T20:37:25.805Z,97251.72
2023-06-10T20:39:54.128Z,97278.91
2023-06-10T20:42:22.388Z,97213.06
2023-06-10T20:44:51.055Z,97274.84
2023-06-10T20:47:20.118Z,97282.44
2023-06-10T20:49:48.949Z,97268.41
2023-06-10T20:52:18.308Z,97277.13
2023-06-10T20:55:15.588Z,97280.06
2023-06-10T20:57:45.065Z,97216.66
2023-06-10T21:00:14.145Z,97288.47
2023-06-10T21:02:42.450Z,97288.03
2023-06-10T21:05:12.000Z,97271.38
2023-06-10T21:07:40.542Z,97273.56
2023-06-10T21:10:10.907Z,97275.34
2023-06-10T21:12:39.054Z,97278.19
2023-06-10T21:15:09.671Z,97281.84
2023-06-10T21:17:38.342Z,97283.84
2023-06-10T21:20:08.006Z,97276.75
2023-06-10T21:22:36.208Z,97280.13
2023-06-10T21:25:04.641Z,97253.47
2023-06-10T21:27:34.270Z,97264.63
2023-06-10T21:30:02.712Z,97281.47
2023-06-10T21:32:32.855Z,97280.25
2023-06-10T21:35:01.274Z,97291.91
2023-06-10T21:37:29.470Z,97291.41
2023-06-10T21:39:58.294Z,97290.28
2023-06-10T21:42:26.522Z,97285.38
2023-06-10T21:44:56.005Z,97264.53
2023-06-10T21:47:24.824Z,97278.16
2023-06-10T21:49:53.034Z,97279.13
2023-06-10T21:52:21.186Z,97273.16
2023-06-10T21:54:49.414Z,97282.44
2023-06-10T21:57:17.524Z,97288.59
2023-06-10T21:59:47.315Z,97273.03
2023-06-10T22:02:17.108Z,97274.94
2023-06-10T22:04:46.257Z,97284.22
2023-06-10T22:07:14.672Z,97283.38
2023-06-10T22:09:50.098Z,97266.53
2023-06-10T22:12:18.721Z,97272.28
2023-06-10T22:14:47.462Z,97271.25
2023-06-10T22:17:17.746Z,97251.59
2023-06-10T22:19:46.121Z,97259.44
2023-06-10T22:22:14.423Z,97257.72
2023-06-10T22:24:43.361Z,97231.78
2023-06-10T22:27:11.622Z,97258.28
2023-06-10T22:29:39.839Z,97253.31
2023-06-10T22:32:09.696Z,97251.19
2023-06-10T22:34:39.390Z,97246.34
2023-06-10T22:37:07.852Z,97243.06
2023-06-10T22:39:36.224Z,97242.09
2023-06-10T22:42:05.872Z,97242.91
2023-06-10T22:44:34.164Z,97225.59
2023-06-10T22:47:02.350Z,97184.84
2023-06-10T22:49:30.548Z,97242.91
2023-06-10T22:52:00.142Z,97237.03
2023-06-10T22:54:28.634Z,97223.81
2023-06-10T22:56:56.892Z,97228.63
2023-06-10T22:59:25.038Z,97228.53
2023-06-10T23:01:53.251Z,97234.03
2023-06-10T23:04:21.602Z,97230.34
2023-06-10T23:06:49.849Z,97231.84
2023-06-10T23:09:19.456Z,97232.28
2023-06-10T23:11:47.625Z,97228.88
2023-06-10T23:14:15.879Z,97190.22
2023-06-10T23:16:47.517Z,97226.66
2023-06-10T23:19:19.368Z,97223.16
2023-06-10T23:21:55.040Z,97227.13
2023-06-10T23:24:28.660Z,97227.53
2023-06-10T23:26:57.094Z,97228.28
2023-06-10T23:29:26.235Z,97227.22
2023-06-10T23:31:55.047Z,97231.50
2023-06-10T23:34:23.818Z,97208.03
2023-06-10T23:36:53.496Z,97228.19
2023-06-10T23:39:23.510Z,97205.78
2023-06-10T23:41:53.173Z,97223.94
2023-06-10T23:44:21.300Z,97212.00
2023-06-10T23:46:49.472Z,97220.63
2023-06-10T23:49:18.690Z,97218.38
2023-06-10T23:51:46.925Z,97218.94
2023-06-10T23:54:15.109Z,97220.84
2023-06-10T23:56:43.288Z,97215.59
2023-06-10T23:59:12.859Z,97208.91
